Time;durP1;ratioP1;P1;durP2;ratioP2;P2;SDS_P1;SDS_P2;PMS_P1;PMS_P2;Temp;Humidity;BMP_temperature;BMP_pressure;BME280_temperature;BME280_humidity;BME280_pressure;Samples;Min_cycle;Max_cycle;Signal;HPM_P1;HPM_P2
2024/03/08 00:00:20;;;;;;;28.33;21.90;;;2.30;99.90;;;2.66;97.94;97872.06;10395116;28;20240;-65
2024/03/08 00:05:25;;;;;;;27.73;21.73;;;2.20;99.90;;;2.78;96.48;97873.88;10396572;28;20332;-64
2024/03/08 00:10:29;;;;;;;30.43;22.80;;;2.10;99.90;;;2.61;97.36;97862.31;10393198;28;20602;-64
2024/03/08 00:15:33;;;;;;;28.17;21.57;;;2.10;99.90;;;2.68;97.05;97857.03;10395381;28;20309;-64
2024/03/08 00:20:37;;;;;;;27.87;21.20;;;2.10;99.90;;;2.91;95.87;97853.97;10396001;28;20825;-64
2024/03/08 00:25:40;;;;;;;29.40;22.13;;;2.20;99.90;;;2.66;97.50;97856.00;10393216;28;20707;-63
2024/03/08 00:30:45;;;;;;;26.20;21.00;;;2.10;99.90;;;2.70;97.76;97848.84;10396497;28;20800;-64
2024/03/08 00:35:49;;;;;;;27.50;21.57;;;2.10;99.90;;;2.79;97.70;97857.97;10396655;28;20267;-64
2024/03/08 00:40:53;;;;;;;26.87;19.63;;;2.10;99.90;;;2.68;97.98;97840.25;10393353;28;20226;-65
2024/03/08 00:45:57;;;;;;;28.03;21.47;;;2.10;99.90;;;2.56;98.64;97834.16;10395279;28;20230;-65
2024/03/08 00:51:02;;;;;;;29.07;20.60;;;2.00;99.90;;;2.39;99.86;97827.63;10391182;28;20614;-63
2024/03/08 00:56:06;;;;;;;27.47;21.50;;;1.80;99.90;;;2.19;99.03;97833.44;10395507;28;20303;-64
2024/03/08 01:01:09;;;;;;;29.17;21.43;;;1.70;99.90;;;1.99;99.33;97830.78;10402113;22;20387;-65
2024/03/08 01:06:14;;;;;;;32.53;22.60;;;1.50;99.90;;;1.95;99.90;97831.28;10393177;28;20220;-65
2024/03/08 01:11:17;;;;;;;26.00;20.37;;;1.50;99.90;;;1.92;99.47;97823.44;10392627;28;20241;-65
2024/03/08 01:16:21;;;;;;;30.80;21.53;;;1.50;99.90;;;1.94;99.11;97822.81;10396586;28;20230;-65
2024/03/08 01:21:26;;;;;;;27.70;22.27;;;1.50;99.90;;;1.95;98.40;97813.63;10393473;28;20253;-64
2024/03/08 01:26:29;;;;;;;26.93;20.00;;;1.50;99.90;;;2.03;99.33;97802.56;10391364;28;20214;-65
2024/03/08 01:31:33;;;;;;;26.63;18.93;;;1.60;99.90;;;2.03;99.36;97803.50;10392546;28;20612;-64
2024/03/08 01:36:38;;;;;;;26.43;19.97;;;1.50;99.90;;;2.02;98.96;97795.78;10391087;28;20225;-63
2024/03/08 01:41:41;;;;;;;25.03;19.23;;;1.50;99.90;;;2.04;98.39;97779.16;10391123;28;20750;-63
2024/03/08 01:46:45;;;;;;;27.23;19.83;;;1.50;99.90;;;1.98;98.22;97771.94;10392195;28;20530;-65
2024/03/08 01:51:50;;;;;;;25.10;18.93;;;1.50;99.90;;;2.02;98.00;97771.44;10392877;28;20239;-65
2024/03/08 01:56:54;;;;;;;25.47;19.93;;;1.50;99.90;;;2.06;98.29;97771.72;10391449;28;20246;-65
2024/03/08 02:02:03;;;;;;;25.50;19.80;;;1.50;99.90;;;1.92;98.92;97768.88;10389950;28;20255;-64
2024/03/08 02:07:07;;;;;;;25.53;18.47;;;1.40;99.90;;;1.83;98.94;97759.63;10389350;28;20265;-64
2024/03/08 02:12:13;;;;;;;26.73;19.73;;;1.30;99.90;;;1.71;98.94;97750.22;10389200;28;20233;-65
2024/03/08 02:17:16;;;;;;;23.67;19.57;;;1.20;99.90;;;1.74;98.76;97742.03;10391342;28;20230;-64
2024/03/08 02:22:22;;;;;;;24.63;18.93;;;1.30;99.90;;;1.97;98.39;97732.34;10389002;28;20936;-64
2024/03/08 02:27:25;;;;;;;24.90;19.43;;;1.30;99.90;;;1.89;96.66;97735.88;10391475;28;20656;-63
2024/03/08 02:32:29;;;;;;;23.03;18.33;;;1.20;99.90;;;1.76;98.50;97735.53;10386996;28;20226;-65
2024/03/08 02:37:34;;;;;;;20.33;16.77;;;1.20;99.90;;;1.58;98.59;97725.59;10391331;28;21773;-63
2024/03/08 02:42:37;;;;;;;27.27;19.40;;;1.00;99.90;;;1.70;98.99;97725.78;10389625;28;20317;-63
2024/03/08 02:47:41;;;;;;;31.50;20.40;;;1.00;99.90;;;1.63;98.18;97705.84;10392678;28;20316;-65
2024/03/08 02:52:46;;;;;;;23.77;18.40;;;1.10;99.90;;;1.66;98.37;97700.19;10387199;28;20236;-64
2024/03/08 02:57:50;;;;;;;25.20;18.57;;;1.20;99.90;;;1.73;98.04;97700.84;10390382;28;20226;-65
2024/03/08 03:02:53;;;;;;;23.80;17.43;;;1.30;99.90;;;1.80;98.65;97698.16;10389375;28;20788;-62
2024/03/08 03:07:59;;;;;;;27.87;19.43;;;1.30;99.90;;;1.81;96.64;97688.94;10389033;28;20222;-65
2024/03/08 03:13:02;;;;;;;23.93;18.93;;;1.40;99.90;;;1.83;96.45;97696.63;10390146;28;20760;-66
2024/03/08 03:18:07;;;;;;;23.87;19.20;;;1.40;99.90;;;1.96;95.79;97692.78;10388371;28;20739;-65
2024/03/08 03:23:14;;;;;;;23.57;18.03;;;1.50;99.90;;;1.85;95.93;97680.00;10389636;28;20324;-64
2024/03/08 03:28:21;;;;;;;23.70;17.67;;;1.40;99.90;;;1.95;97.05;97687.63;10389498;28;20221;-63
2024/03/08 03:33:24;;;;;;;24.23;18.63;;;1.40;99.90;;;1.72;96.70;97689.03;10394630;28;20253;-65
2024/03/08 03:38:29;;;;;;;25.77;19.13;;;1.30;99.90;;;1.65;97.54;97678.25;10397707;28;20233;-64
2024/03/08 03:43:32;;;;;;;24.50;19.73;;;1.10;99.90;;;1.71;96.72;97666.19;10395940;28;20608;-63
2024/03/08 03:48:36;;;;;;;23.97;18.63;;;1.20;99.90;;;1.99;95.58;97661.94;10397023;28;20312;-64
2024/03/08 03:53:40;;;;;;;24.67;18.73;;;1.40;99.90;;;2.04;95.22;97665.75;10396725;28;20355;-65
2024/03/08 03:58:43;;;;;;;26.37;20.53;;;1.50;99.90;;;1.87;95.73;97653.31;10395037;28;20240;-63
2024/03/08 04:03:47;;;;;;;26.73;18.90;;;1.50;99.90;;;1.85;96.11;97650.66;10395909;28;20237;-64
2024/03/08 04:08:51;;;;;;;25.80;19.00;;;1.50;99.90;;;2.11;95.37;97655.41;10395839;28;20283;-65
2024/03/08 04:13:54;;;;;;;25.60;19.23;;;1.60;99.90;;;2.20;94.33;97651.19;10396319;28;20318;-65
2024/03/08 04:18:57;;;;;;;27.17;19.53;;;1.80;99.90;;;1.96;95.95;97649.06;10395101;28;20245;-64
2024/03/08 04:24:02;;;;;;;25.13;19.70;;;1.50;99.90;;;1.76;96.81;97645.69;10394853;28;20894;-64
2024/03/08 04:29:05;;;;;;;24.20;18.90;;;1.40;99.90;;;1.76;96.73;97659.94;10393613;28;20707;-65
2024/03/08 04:34:09;;;;;;;27.73;20.43;;;1.30;99.90;;;1.74;96.98;97651.34;10394991;28;20320;-64
2024/03/08 04:39:14;;;;;;;22.60;19.00;;;1.30;99.90;;;1.72;97.69;97653.75;10394258;28;20237;-65
2024/03/08 04:44:17;;;;;;;26.53;20.50;;;1.30;99.90;;;1.67;97.96;97633.97;10395456;28;20233;-64
2024/03/08 04:49:21;;;;;;;26.23;19.10;;;1.20;99.90;;;1.69;97.26;97628.31;10395586;28;20283;-65
2024/03/08 04:54:26;;;;;;;28.93;21.70;;;1.20;99.90;;;1.61;97.95;97629.25;10393784;28;20304;-64
2024/03/08 04:59:29;;;;;;;30.37;22.23;;;1.20;99.90;;;1.65;98.02;97625.38;10389902;28;20225;-64
2024/03/08 05:04:32;;;;;;;27.57;21.73;;;1.20;99.90;;;1.71;97.79;97633.47;10393637;28;20225;-64
2024/03/08 05:09:37;;;;;;;29.63;20.20;;;1.30;99.90;;;1.70;98.12;97622.50;10391780;28;20222;-65
2024/03/08 05:14:41;;;;;;;30.07;22.57;;;1.30;99.90;;;1.71;97.79;97616.69;10383734;28;20222;-64
2024/03/08 05:19:44;;;;;;;29.70;22.23;;;1.30;99.90;;;1.75;97.85;97606.16;10402201;28;20272;-65
2024/03/08 05:24:49;;;;;;;29.53;21.87;;;1.30;99.90;;;1.73;97.47;97604.25;10397791;28;20225;-64
2024/03/08 05:29:52;;;;;;;27.90;20.77;;;1.30;99.90;;;1.65;98.24;97611.13;10399666;28;20595;-64
2024/03/08 05:34:55;;;;;;;27.80;20.67;;;1.20;99.90;;;1.74;98.33;97606.00;10399751;28;20301;-65
2024/03/08 05:39:59;;;;;;;32.57;23.80;;;1.20;99.90;;;1.84;97.18;97607.72;10413150;28;21639;-65
2024/03/08 05:45:03;;;;;;;27.33;20.60;;;1.30;99.90;;;1.83;97.07;97610.97;10394097;28;20611;-65
2024/03/08 05:50:10;;;;;;;29.53;21.73;;;1.30;99.90;;;1.90;97.12;97609.09;10405828;28;20242;-65
2024/03/08 05:55:15;;;;;;;29.83;21.47;;;1.40;99.90;;;1.82;97.25;97602.53;10407275;28;20229;-66
2024/03/08 06:00:19;;;;;;;29.23;22.10;;;1.30;99.90;;;1.77;97.94;97604.66;10396785;28;20240;-64
2024/03/08 06:05:24;;;;;;;32.57;23.73;;;1.40;99.90;;;1.73;98.42;97601.72;10400732;28;20363;-65
2024/03/08 06:10:30;;;;;;;31.03;22.40;;;1.30;99.90;;;1.80;98.30;97592.31;10397943;28;20320;-63
2024/03/08 06:15:34;;;;;;;34.77;24.47;;;1.40;99.90;;;1.82;98.46;97594.09;10403485;28;20738;-64
2024/03/08 06:20:37;;;;;;;27.37;20.23;;;1.30;99.90;;;1.83;97.72;97595.84;10398066;28;20239;-64
2024/03/08 06:25:42;;;;;;;32.07;23.00;;;1.20;99.90;;;1.76;97.95;97590.28;10396185;28;20236;-64
2024/03/08 06:30:45;;;;;;;33.60;23.77;;;1.20;99.90;;;1.70;99.24;97594.78;10394144;28;20291;-65
2024/03/08 06:35:48;;;;;;;32.40;24.00;;;1.20;99.90;;;1.94;98.21;97597.66;10398660;28;20312;-64
2024/03/08 06:40:54;;;;;;;38.07;25.13;;;1.40;99.90;;;2.10;98.47;97598.22;10396195;28;20846;-65
2024/03/08 06:45:57;;;;;;;41.53;25.20;;;1.60;99.90;;;2.15;98.29;97596.09;10383294;28;20240;-65
2024/03/08 06:51:01;;;;;;;37.87;23.93;;;1.60;99.90;;;2.30;97.70;97597.38;10375219;28;20248;-65
2024/03/08 06:56:07;;;;;;;32.17;22.70;;;1.80;99.90;;;2.33;96.74;97591.72;10384797;28;20652;-63
2024/03/08 07:01:13;;;;;;;34.13;24.73;;;1.90;99.90;;;2.80;94.63;97597.28;10396241;28;20234;-65
2024/03/08 07:06:18;;;;;;;34.37;23.37;;;2.30;99.90;;;2.74;94.76;97592.63;10392528;28;20226;-64
2024/03/08 07:11:23;;;;;;;34.50;25.33;;;2.30;99.90;;;2.88;95.95;97598.81;10393684;28;20238;-64
2024/03/08 07:16:26;;;;;;;34.40;23.87;;;2.40;99.90;;;3.00;93.60;97602.31;10400474;28;20312;-65
2024/03/08 07:21:30;;;;;;;30.27;22.87;;;2.50;99.90;;;3.07;94.07;97594.50;10393847;28;20274;-65
2024/03/08 07:26:34;;;;;;;29.03;23.20;;;2.50;99.90;;;3.13;92.80;97594.13;10388775;28;20225;-63
2024/03/08 07:31:50;;;;;;;28.00;21.80;;;2.60;99.90;;;3.38;90.72;97586.88;10402442;28;20239;-65
2024/03/08 07:36:53;;;;;;;29.73;21.77;;;2.90;99.90;;;3.58;90.82;97585.94;10395096;28;20366;-64
2024/03/08 07:41:58;;;;;;;31.67;22.70;;;3.10;99.90;;;3.51;90.48;97576.97;10394882;28;20297;-64
2024/03/08 07:47:01;;;;;;;28.57;21.37;;;3.10;99.90;;;3.69;88.96;97574.13;10395853;28;20244;-65
2024/03/08 07:52:07;;;;;;;28.53;21.80;;;3.30;99.90;;;3.80;89.24;97571.66;10395151;28;20222;-63
2024/03/08 07:57:11;;;;;;;28.70;21.90;;;3.30;99.90;;;3.77;89.16;97575.63;10393965;28;20610;-65
2024/03/08 08:02:14;;;;;;;30.00;22.40;;;3.30;99.90;;;4.11;87.91;97561.41;10405044;28;20260;-65
2024/03/08 08:07:18;;;;;;;26.80;21.60;;;3.50;99.90;;;4.44;85.70;97558.06;10399106;28;20222;-65
2024/03/08 08:12:23;;;;;;;27.90;21.50;;;3.90;99.90;;;4.55;84.07;97560.50;10398736;28;20645;-64
2024/03/08 08:17:26;;;;;;;26.50;19.90;;;4.00;99.90;;;4.20;85.89;97568.81;10397968;28;20252;-63
2024/03/08 08:22:29;;;;;;;25.37;19.77;;;3.80;99.90;;;4.46;83.89;97556.53;10405261;28;20303;-65
2024/03/08 08:27:34;;;;;;;28.87;22.60;;;3.90;99.90;;;4.42;84.47;97562.09;10413464;28;20245;-64
2024/03/08 08:32:37;;;;;;;27.50;20.93;;;4.00;99.90;;;4.58;83.36;97548.06;10402088;28;20225;-65
2024/03/08 08:37:41;;;;;;;27.40;21.60;;;4.20;99.90;;;4.66;82.51;97552.06;10403683;28;20229;-65
2024/03/08 08:42:46;;;;;;;26.80;21.20;;;4.30;99.90;;;4.50;84.55;97550.03;10401245;28;20740;-64
2024/03/08 08:47:52;;;;;;;29.63;21.93;;;4.10;99.90;;;4.62;82.49;97545.00;10409901;28;20244;-64
2024/03/08 08:52:56;;;;;;;27.93;21.70;;;4.10;99.90;;;4.39;83.73;97536.56;10402038;28;20237;-65
2024/03/08 08:58:01;;;;;;;26.93;20.97;;;4.00;99.90;;;4.39;84.28;97533.16;10400882;28;20256;-65
2024/03/08 09:03:06;;;;;;;29.93;22.53;;;4.00;99.90;;;4.47;82.98;97516.91;10401441;28;20369;-63
2024/03/08 09:08:09;;;;;;;27.47;20.27;;;4.00;99.90;;;4.54;83.97;97523.31;10403822;28;20656;-65
2024/03/08 09:13:16;;;;;;;30.87;21.40;;;4.20;99.90;;;4.96;82.13;97510.41;10406824;28;20233;-65
2024/03/08 09:18:33;;;;;;;30.77;21.47;;;4.60;99.90;;;5.00;81.77;97514.03;10403664;28;20235;-65
2024/03/08 09:23:36;;;;;;;28.43;21.00;;;4.70;99.90;;;5.28;80.21;97505.13;10404052;28;20232;-66
2024/03/08 09:28:41;;;;;;;29.33;20.83;;;4.70;99.90;;;5.47;81.24;97507.31;10399385;28;20731;-65
2024/03/08 09:33:44;;;;;;;28.57;21.77;;;4.80;99.90;;;5.63;80.06;97504.19;10405903;28;20244;-65
2024/03/08 09:38:50;;;;;;;28.97;22.10;;;5.00;99.90;;;5.57;80.75;97493.63;10401133;28;20232;-65
2024/03/08 09:43:55;;;;;;;28.00;20.17;;;5.00;99.90;;;5.96;77.33;97497.22;10412623;28;20257;-65
2024/03/08 09:49:01;;;;;;;28.07;19.83;;;5.40;99.90;;;6.25;76.47;97484.84;10402673;28;20221;-66
2024/03/08 09:54:05;;;;;;;29.27;21.80;;;5.70;99.90;;;6.13;75.58;97484.00;10408626;28;20321;-66
2024/03/08 09:59:43;;;;;;;28.80;21.47;;;5.70;99.90;;;5.71;76.15;97474.31;10402680;28;20232;-65
2024/03/08 10:04:47;;;;;;;25.90;20.00;;;5.30;99.90;;;6.18;75.53;97475.06;10397757;28;20253;-65
2024/03/08 10:09:53;;;;;;;29.17;21.53;;;5.70;99.90;;;6.44;75.69;97466.66;10398437;28;20234;-65
2024/03/08 10:14:59;;;;;;;29.43;20.73;;;5.90;99.90;;;6.42;74.66;97462.25;10396895;28;20329;-64
2024/03/08 10:20:14;;;;;;;28.53;21.30;;;6.00;99.90;;;6.86;73.15;97466.81;10399904;28;20303;-65
2024/03/08 10:25:18;;;;;;;27.97;20.47;;;6.30;99.90;;;6.72;74.00;97455.75;10405662;28;20229;-65
2024/03/08 10:30:23;;;;;;;28.03;20.23;;;6.20;99.90;;;7.28;71.35;97445.81;10406633;28;20230;-63
2024/03/08 10:35:26;;;;;;;28.47;19.90;;;6.80;99.90;;;7.61;69.15;97434.31;10402499;28;20465;-64
2024/03/08 10:40:32;;;;;;;26.97;20.03;;;7.30;99.90;;;7.32;70.70;97441.78;10402728;28;20236;-66
2024/03/08 10:45:41;;;;;;;27.40;19.87;;;7.00;99.90;;;7.72;69.44;97434.06;10405755;28;20249;-66
2024/03/08 10:50:46;;;;;;;29.17;21.90;;;7.30;99.90;;;7.94;70.95;97434.59;10400426;28;20285;-65
2024/03/08 10:55:53;;;;;;;28.20;20.27;;;7.60;99.90;;;8.23;67.54;97432.91;10401374;28;20284;-65
2024/03/08 11:00:59;;;;;;;28.93;20.53;;;7.90;99.90;;;7.85;67.01;97421.31;10401638;28;20299;-65
2024/03/08 11:06:02;;;;;;;25.77;19.90;;;7.70;99.90;;;7.56;69.62;97420.44;10401890;28;20594;-65
2024/03/08 11:11:06;;;;;;;25.17;20.23;;;7.30;99.90;;;7.87;67.86;97412.13;10403507;28;20652;-66
2024/03/08 11:16:11;;;;;;;30.77;22.00;;;7.50;99.90;;;8.23;68.08;97405.78;10407173;28;20230;-64
2024/03/08 11:21:15;;;;;;;26.27;19.40;;;7.90;99.90;;;8.22;66.86;97403.16;10422467;28;20218;-66
2024/03/08 11:26:19;;;;;;;26.57;20.03;;;8.00;99.90;;;8.09;66.45;97394.78;10421438;28;20230;-66
2024/03/08 11:31:29;;;;;;;27.93;20.10;;;7.80;99.90;;;8.24;67.36;97387.19;10423676;28;20230;-66
2024/03/08 11:36:37;;;;;;;26.43;20.40;;;8.00;99.90;;;7.74;67.76;97394.34;10418821;28;20569;-64
2024/03/08 11:41:41;;;;;;;25.23;19.43;;;7.50;99.90;;;7.79;67.98;97372.63;10412159;28;20312;-65
2024/03/08 11:46:47;;;;;;;25.73;19.37;;;7.50;99.90;;;8.08;67.36;97367.56;10409844;28;20308;-65
2024/03/08 11:51:54;;;;;;;27.40;21.43;;;7.70;99.90;;;8.13;68.53;97355.13;10402171;28;20271;-65
2024/03/08 11:57:00;;;;;;;25.60;18.47;;;7.70;99.90;;;8.58;65.33;97350.91;10403162;28;20232;-65
2024/03/08 12:02:07;;;;;;;25.37;19.27;;;8.20;99.90;;;8.69;65.81;97337.13;10363895;28;20864;-67
2024/03/08 12:07:14;;;;;;;24.73;18.63;;;8.30;99.90;;;8.45;65.49;97333.22;10360562;28;20233;-64
2024/03/08 12:12:17;;;;;;;27.30;19.43;;;8.10;99.90;;;8.53;66.82;97332.84;10365686;28;20237;-66
2024/03/08 12:17:22;;;;;;;25.23;19.02;;;8.20;99.90;;;8.68;64.14;97320.09;10378518;28;20649;-67
2024/03/08 12:22:27;;;;;;;23.08;17.92;;;8.30;99.90;;;8.70;64.04;97305.78;10375784;28;20230;-66
2024/03/08 12:27:31;;;;;;;23.43;18.57;;;8.20;99.90;;;8.57;64.62;97304.19;10373566;28;20757;-65
2024/03/08 12:32:36;;;;;;;25.70;19.07;;;8.30;99.90;;;8.78;63.51;97295.97;10377981;28;20757;-66
2024/03/08 12:37:39;;;;;;;24.63;18.77;;;8.40;99.90;;;9.03;63.67;97288.88;10379192;28;20241;-66
2024/03/08 12:42:42;;;;;;;24.03;19.83;;;8.70;99.90;;;8.95;63.32;97277.38;10401171;28;20225;-66
2024/03/08 12:47:49;;;;;;;24.10;18.33;;;8.50;99.90;;;9.13;64.58;97263.84;10425657;28;20252;-66
2024/03/08 12:52:52;;;;;;;22.88;18.38;;;8.70;99.90;;;9.23;61.77;97263.56;10424453;28;20240;-66
2024/03/08 12:57:56;;;;;;;22.75;18.63;;;8.90;99.90;;;9.25;63.18;97244.13;10422075;28;20233;-66
2024/03/08 13:03:01;;;;;;;23.45;18.20;;;9.00;99.90;;;9.31;62.20;97243.56;10421811;28;20233;-66
2024/03/08 13:08:05;;;;;;;24.80;18.40;;;9.00;99.90;;;9.23;62.49;97230.41;10424851;28;20230;-65
2024/03/08 13:13:09;;;;;;;24.88;19.30;;;8.90;99.90;;;9.23;63.03;97227.88;10421843;28;20249;-65
2024/03/08 13:18:15;;;;;;;22.42;18.17;;;9.00;99.90;;;9.70;61.92;97222.63;10416817;28;20229;-64
2024/03/08 13:23:19;;;;;;;24.02;18.27;;;9.40;99.90;;;9.68;62.26;97215.72;10418177;28;20229;-66
2024/03/08 13:28:27;;;;;;;23.85;19.10;;;9.30;99.90;;;9.82;61.19;97201.94;10426542;28;20312;-66
2024/03/08 13:33:35;;;;;;;23.90;18.60;;;9.60;99.90;;;9.92;61.07;97201.59;10419584;28;21179;-66
2024/03/08 13:38:38;;;;;;;22.23;18.08;;;9.80;99.90;;;9.88;61.26;97188.63;10401341;28;20236;-66
2024/03/08 13:43:42;;;;;;;24.02;19.58;;;9.60;99.90;;;10.02;60.68;97179.06;10395153;28;20643;-66
2024/03/08 13:48:47;;;;;;;22.20;17.88;;;9.70;99.90;;;10.23;59.97;97169.00;10394808;28;20274;-66
2024/03/08 13:53:50;;;;;;;21.10;18.08;;;9.90;99.90;;;10.36;59.71;97151.81;10396823;28;20307;-65
2024/03/08 13:58:56;;;;;;;21.52;17.30;;;10.00;99.90;;;10.40;57.38;97147.69;10393841;28;20304;-66
2024/03/08 14:04:00;;;;;;;20.40;17.45;;;10.10;99.90;;;10.30;58.87;97136.19;10391279;28;20321;-66
2024/03/08 14:09:04;;;;;;;18.40;15.95;;;10.00;99.90;;;10.32;58.30;97134.56;10393141;28;20309;-66
2024/03/08 14:14:08;;;;;;;19.55;17.17;;;10.00;99.90;;;10.37;57.33;97120.31;10393631;28;20591;-65
2024/03/08 14:19:15;;;;;;;19.88;16.17;;;10.00;99.90;;;10.74;57.31;97124.53;10394295;28;20278;-66
2024/03/08 14:24:18;;;;;;;21.95;17.60;;;10.40;99.90;;;10.44;57.79;97108.69;10391045;28;20247;-66
2024/03/08 14:29:22;;;;;;;21.27;16.35;;;10.30;99.90;;;10.78;56.65;97111.06;10383847;28;20315;-66
2024/03/08 14:34:27;;;;;;;19.38;16.15;;;10.50;99.90;;;10.86;56.43;97097.78;10384682;28;20313;-67
2024/03/08 14:39:30;;;;;;;20.30;16.25;;;10.60;99.90;;;10.94;56.96;97091.31;10385806;28;20233;-66
2024/03/08 14:44:33;;;;;;;20.38;16.85;;;10.60;99.90;;;10.91;56.79;97080.97;10383369;28;20233;-66
2024/03/08 14:49:38;;;;;;;18.88;15.82;;;10.60;99.90;;;11.02;55.60;97079.72;10379719;28;20221;-66
2024/03/08 14:54:41;;;;;;;17.67;14.80;;;10.90;99.90;;;10.95;56.66;97087.94;10385708;28;20739;-65
2024/03/08 14:59:44;;;;;;;18.48;15.30;;;10.60;99.90;;;11.04;56.55;97067.88;10381170;28;20229;-65
2024/03/08 15:04:56;;;;;;;17.20;15.23;;;10.60;99.90;;;11.22;54.65;97060.97;10384913;28;20222;-65
2024/03/08 15:10:01;;;;;;;19.05;15.45;;;10.80;99.90;;;11.09;54.59;97076.59;10385842;28;20227;-67
2024/03/08 15:15:07;;;;;;;17.55;14.90;;;10.70;99.80;;;11.09;54.02;97061.25;10378410;28;20319;-66
2024/03/08 15:20:16;;;;;;;17.27;14.73;;;10.80;99.10;;;11.17;53.45;97054.78;10382489;28;20232;-65
2024/03/08 15:25:20;;;;;;;15.60;13.75;;;10.80;98.40;;;11.14;54.54;97053.81;10380444;28;20728;-66
2024/03/08 15:30:26;;;;;;;18.40;15.15;;;10.70;99.30;;;11.06;54.05;97043.25;10373977;28;20228;-66
2024/03/08 15:35:31;;;;;;;15.48;13.55;;;10.70;99.30;;;11.07;55.04;97037.31;10383579;28;20299;-66
2024/03/08 15:40:35;;;;;;;17.00;14.05;;;10.70;99.70;;;10.99;56.08;97025.91;10388421;28;20229;-65
2024/03/08 15:45:38;;;;;;;15.60;12.85;;;10.50;99.90;;;11.17;53.48;97024.09;10392909;28;20356;-65
2024/03/08 15:50:43;;;;;;;16.33;13.75;;;10.70;98.90;;;11.12;53.54;97019.59;10381976;28;20278;-67
2024/03/08 15:55:47;;;;;;;14.77;13.18;;;10.70;98.90;;;11.09;53.27;97019.47;10387957;28;20356;-65
2024/03/08 16:00:52;;;;;;;14.75;12.52;;;10.70;98.60;;;10.91;53.41;97009.38;10386652;28;20225;-66
2024/03/08 16:05:57;;;;;;;14.50;11.90;;;10.60;98.00;;;11.01;53.76;97001.25;10389421;28;20760;-67
2024/03/08 16:11:05;;;;;;;13.27;11.55;;;10.60;98.60;;;10.76;54.91;96997.69;10390020;28;20218;-67
2024/03/08 16:16:09;;;;;;;14.57;10.98;;;10.40;99.00;;;10.97;54.57;96986.63;10383469;28;20564;-65
2024/03/08 16:21:14;;;;;;;14.38;11.02;;;10.40;99.20;;;10.82;53.76;96984.28;10384026;28;20226;-65
2024/03/08 16:26:17;;;;;;;14.07;12.20;;;10.40;98.80;;;10.68;54.05;96976.03;10389043;28;20610;-67
2024/03/08 16:31:21;;;;;;;13.27;11.07;;;10.20;99.00;;;10.57;55.47;96974.72;10386946;28;20237;-67
2024/03/08 16:36:26;;;;;;;13.20;11.68;;;10.00;99.90;;;10.41;56.03;96978.28;10384164;28;21008;-66
2024/03/08 16:41:29;;;;;;;14.90;12.23;;;9.80;99.90;;;10.40;55.77;96970.56;10391677;28;20260;-67
2024/03/08 16:46:33;;;;;;;15.65;12.63;;;9.80;99.90;;;10.35;56.91;96973.78;10390034;28;20582;-66
2024/03/08 16:51:41;;;;;;;13.73;12.20;;;9.70;99.90;;;10.30;57.66;96975.28;10391418;28;20254;-65
2024/03/08 16:56:45;;;;;;;16.50;13.90;;;9.60;99.90;;;10.06;59.22;96976.72;10387628;28;20340;-66
2024/03/08 17:01:48;;;;;;;15.60;12.98;;;9.40;99.90;;;9.94;57.70;96971.94;10384005;28;20786;-66
2024/03/08 17:06:53;;;;;;;17.85;14.38;;;9.30;99.90;;;9.64;57.90;96981.59;10389653;28;20233;-65
2024/03/08 17:11:56;;;;;;;14.00;12.27;;;9.20;99.90;;;9.56;58.50;96977.84;10388520;28;21131;-66
2024/03/08 17:16:59;;;;;;;13.50;12.05;;;9.00;99.90;;;9.56;58.23;96980.41;10398644;22;20673;-67
2024/03/08 17:22:06;;;;;;;15.43;13.85;;;9.00;99.90;;;9.22;59.58;96968.59;10380117;28;20244;-67
2024/03/08 17:27:10;;;;;;;15.82;13.95;;;8.70;99.90;;;9.14;59.42;96975.00;10386741;28;20226;-67
2024/03/08 17:32:14;;;;;;;17.02;14.38;;;8.40;99.90;;;9.11;58.92;96970.63;10390884;28;20221;-66
2024/03/08 17:37:19;;;;;;;15.05;13.50;;;8.50;99.90;;;8.72;60.03;96957.69;10384963;28;20341;-67
2024/03/08 17:42:24;;;;;;;15.60;13.55;;;8.20;99.90;;;8.61;60.60;96960.50;10382784;28;23187;-67
2024/03/08 17:47:29;;;;;;;16.60;13.13;;;8.10;99.90;;;8.55;59.53;96958.53;10391658;28;20712;-68
2024/03/08 17:52:33;;;;;;;16.50;12.90;;;8.10;99.90;;;8.62;59.06;96964.81;10386646;28;20313;-68
2024/03/08 17:57:39;;;;;;;14.82;12.73;;;8.20;99.90;;;8.41;59.48;96956.97;10391530;28;20233;-68
2024/03/08 18:02:42;;;;;;;14.70;12.60;;;8.00;99.90;;;8.39;58.16;96951.81;10388944;28;20609;-68
2024/03/08 18:07:47;;;;;;;15.67;12.93;;;8.10;99.90;;;8.26;58.88;96957.91;10388673;28;20265;-67
2024/03/08 18:12:53;;;;;;;13.98;12.48;;;7.90;99.90;;;8.32;58.36;96960.75;10382999;28;20305;-68
2024/03/08 18:17:58;;;;;;;14.80;12.80;;;7.80;99.90;;;8.16;58.03;96959.91;10384423;28;20743;-67
2024/03/08 18:23:04;;;;;;;13.57;12.27;;;7.70;99.90;;;8.15;57.80;96960.69;10375648;28;20222;-66
2024/03/08 18:28:09;;;;;;;14.50;12.90;;;7.60;99.90;;;7.95;58.14;96952.88;10378038;28;20594;-68
2024/03/08 18:33:13;;;;;;;12.73;11.43;;;7.40;99.90;;;7.83;58.66;96952.25;10380876;28;20321;-68
2024/03/08 18:38:22;;;;;;;13.13;11.73;;;7.30;99.90;;;7.94;58.29;96943.50;10381396;28;20283;-67
2024/03/08 18:43:27;;;;;;;12.07;10.87;;;7.30;99.90;;;7.70;58.19;96930.41;10374712;28;20237;-69
2024/03/08 18:48:31;;;;;;;11.70;10.47;;;7.20;99.90;;;7.79;57.60;96930.00;10380667;28;20229;-68
2024/03/08 18:53:40;;;;;;;14.27;11.63;;;7.30;99.90;;;7.62;58.28;96912.19;10376789;28;20225;-67
2024/03/08 18:58:43;;;;;;;12.23;10.87;;;7.20;99.90;;;7.63;58.34;96902.88;10374973;28;20915;-68
2024/03/08 19:03:50;;;;;;;12.37;10.87;;;7.30;99.90;;;7.55;58.95;96905.00;10380118;28;20226;-69
2024/03/08 19:08:55;;;;;;;11.50;10.40;;;7.10;99.90;;;7.68;58.42;96902.31;10379851;28;20295;-67
2024/03/08 19:13:59;;;;;;;11.33;10.13;;;7.20;99.90;;;7.55;59.08;96915.19;10377682;28;20325;-65
2024/03/08 19:19:03;;;;;;;13.53;11.03;;;7.10;99.90;;;7.56;58.80;96905.91;10379585;28;20610;-68
2024/03/08 19:24:08;;;;;;;11.53;10.43;;;7.20;99.90;;;7.32;59.75;96916.50;10373493;28;20226;-66
2024/03/08 19:29:14;;;;;;;12.03;10.70;;;7.00;99.90;;;7.29;59.91;96918.00;10375407;28;20226;-67
2024/03/08 19:34:18;;;;;;;12.57;10.90;;;6.90;99.90;;;7.50;59.14;96921.72;10373306;28;20768;-68
2024/03/08 19:39:25;;;;;;;12.50;11.17;;;7.10;99.90;;;7.38;59.44;96915.94;10375484;28;20259;-68
2024/03/08 19:44:28;;;;;;;12.93;11.43;;;7.00;99.90;;;7.37;60.71;96910.00;10374364;28;20230;-67
2024/03/08 19:49:32;;;;;;;12.93;11.63;;;7.00;99.90;;;7.41;60.32;96921.19;10378002;28;20238;-68
2024/03/08 19:54:38;;;;;;;14.43;12.30;;;7.00;99.90;;;7.31;60.74;96916.44;10375625;28;20230;-68
2024/03/08 19:59:44;;;;;;;14.83;12.33;;;6.80;99.90;;;7.13;62.17;96914.63;10375800;28;20328;-68
2024/03/08 20:04:47;;;;;;;12.60;11.03;;;6.60;99.90;;;7.12;62.21;96914.53;10380173;28;20226;-68
2024/03/08 20:09:52;;;;;;;14.90;12.50;;;6.50;99.90;;;6.99;62.64;96921.50;10382180;28;20221;-68
2024/03/08 20:14:56;;;;;;;13.83;11.23;;;6.30;99.90;;;7.00;63.54;96918.16;10380325;28;20328;-67
2024/03/08 20:20:00;;;;;;;14.67;13.03;;;6.30;99.90;;;6.82;65.34;96922.22;10381157;28;20226;-67
2024/03/08 20:25:06;;;;;;;15.77;13.57;;;6.10;99.90;;;6.58;66.42;96916.66;10385253;28;20233;-67
2024/03/08 20:30:12;;;;;;;16.03;14.33;;;5.90;99.90;;;6.37;68.87;96925.56;10382577;28;20228;-68
2024/03/08 20:35:15;;;;;;;20.33;17.30;;;5.60;99.90;;;6.20;70.71;96922.91;10385808;28;20532;-68
2024/03/08 20:40:23;;;;;;;18.83;16.07;;;5.40;99.90;;;5.82;71.35;96925.69;10382344;28;20724;-68
2024/03/08 20:45:27;;;;;;;14.80;13.20;;;5.10;99.90;;;5.62;72.26;96914.34;10387162;28;20326;-68
2024/03/08 20:50:31;;;;;;;15.63;14.03;;;4.90;99.90;;;5.50;73.39;96908.53;10387479;28;20709;-68
2024/03/08 20:55:38;;;;;;;17.03;15.23;;;4.70;99.90;;;5.38;73.94;96899.41;10385449;28;20233;-65
2024/03/08 21:00:48;;;;;;;15.27;13.70;;;4.60;99.90;;;5.22;73.75;96884.03;10389223;28;20230;-67